createdAt,value
2022-12-23T00:00:24.675Z,99.23
2022-12-23T00:01:24.691Z,99.23
2022-12-23T00:02:24.792Z,99.44
2022-12-23T00:03:24.741Z,99.40
2022-12-23T00:04:24.740Z,98.86
2022-12-23T00:05:24.633Z,98.44
2022-12-23T00:06:24.642Z,98.22
2022-12-23T00:07:24.599Z,97.91
2022-12-23T00:08:24.630Z,97.69
2022-12-23T00:09:24.617Z,97.58
2022-12-23T00:10:24.568Z,97.47
2022-12-23T00:11:24.561Z,97.69
2022-12-23T00:12:24.587Z,97.80
2022-12-23T00:13:24.558Z,97.80
2022-12-23T00:14:24.545Z,97.69
2022-12-23T00:15:24.542Z,97.80
2022-12-23T00:16:24.562Z,97.69
2022-12-23T00:17:24.576Z,97.74
2022-12-23T00:18:24.492Z,97.91
2022-12-23T00:19:24.489Z,97.80
2022-12-23T00:20:24.475Z,97.69
2022-12-23T00:21:24.480Z,97.58
2022-12-23T00:22:24.441Z,97.31
2022-12-23T00:23:24.422Z,97.20
2022-12-23T00:24:24.446Z,97.31
2022-12-23T00:25:24.437Z,97.20
2022-12-23T00:26:24.424Z,97.31
2022-12-23T00:27:24.380Z,97.52
2022-12-23T00:28:24.387Z,97.74
2022-12-23T00:29:24.388Z,97.63
2022-12-23T00:30:24.379Z,97.52
2022-12-23T00:31:24.438Z,97.52
2022-12-23T00:32:24.347Z,97.63
2022-12-23T00:33:24.368Z,97.63
2022-12-23T00:34:24.312Z,97.63
2022-12-23T00:35:24.302Z,97.52
2022-12-23T00:36:24.446Z,97.45
2022-12-23T00:37:24.303Z,97.45
2022-12-23T00:38:24.277Z,97.67
2022-12-23T00:39:24.289Z,97.84
2022-12-23T00:40:24.269Z,97.95
2022-12-23T00:41:24.249Z,98.05
2022-12-23T00:42:24.265Z,97.95
2022-12-23T00:43:24.242Z,97.74
2022-12-23T00:44:24.209Z,97.41
2022-12-23T00:45:24.223Z,97.41
2022-12-23T00:46:24.255Z,97.41
2022-12-23T00:47:24.202Z,97.52
2022-12-23T00:48:24.161Z,97.52
2022-12-23T00:49:24.173Z,97.95
2022-12-23T00:50:24.158Z,98.48
2022-12-23T00:51:24.137Z,98.59
2022-12-23T00:52:24.172Z,98.59
2022-12-23T00:53:24.117Z,98.48
2022-12-23T00:54:24.116Z,98.48
2022-12-23T00:55:24.098Z,98.38
2022-12-23T00:56:25.056Z,98.48
2022-12-23T00:57:24.126Z,98.59
2022-12-23T00:58:24.084Z,98.38
2022-12-23T00:59:24.066Z,98.05
2022-12-23T01:00:24.054Z,98.05
2022-12-23T01:01:24.126Z,98.16
2022-12-23T01:02:24.183Z,98.27
2022-12-23T01:03:24.207Z,98.27
2022-12-23T01:04:23.996Z,97.95
2022-12-23T01:05:24.018Z,97.84
2022-12-23T01:06:24.007Z,98.05
2022-12-23T01:07:23.980Z,98.70
2022-12-23T01:08:23.974Z,99.19
2022-12-23T01:09:23.965Z,99.08
2022-12-23T01:10:23.950Z,98.86
2022-12-23T01:11:23.932Z,98.33
2022-12-23T01:12:23.916Z,97.91
2022-12-23T01:13:23.934Z,97.74
2022-12-23T01:14:23.979Z,97.74
2022-12-23T01:15:23.909Z,97.84
2022-12-23T01:16:23.973Z,97.95
2022-12-23T01:17:23.999Z,98.05
2022-12-23T01:18:23.872Z,97.84
2022-12-23T01:19:23.865Z,97.74
2022-12-23T01:20:23.863Z,98.16
2022-12-23T01:21:23.843Z,98.16
2022-12-23T01:22:23.819Z,98.48
2022-12-23T01:23:23.844Z,98.91
2022-12-23T01:24:23.861Z,98.91
2022-12-23T01:25:23.800Z,98.97
2022-12-23T01:26:23.770Z,98.86
2022-12-23T01:27:23.776Z,98.76
2022-12-23T01:28:23.796Z,98.55
2022-12-23T01:29:23.730Z,98.55
2022-12-23T01:30:23.803Z,98.44
2022-12-23T01:31:23.757Z,98.27
2022-12-23T01:32:23.706Z,98.27
2022-12-23T01:33:23.708Z,98.27
2022-12-23T01:34:23.712Z,98.16
2022-12-23T01:35:23.679Z,98.05
2022-12-23T01:36:23.703Z,97.95
2022-12-23T01:37:23.679Z,97.95
2022-12-23T01:38:23.667Z,97.95
2022-12-23T01:39:23.645Z,98.05
2022-12-23T01:40:23.670Z,98.05
2022-12-23T01:41:23.639Z,97.95
2022-12-23T01:42:23.605Z,97.84
2022-12-23T01:43:23.594Z,98.05
2022-12-23T01:44:23.585Z,98.16
2022-12-23T01:45:23.585Z,97.84
2022-12-23T01:46:23.686Z,97.84
2022-12-23T01:47:23.587Z,97.74
2022-12-23T01:48:23.549Z,97.84
2022-12-23T01:49:23.550Z,98.05
2022-12-23T01:50:23.663Z,98.38
2022-12-23T01:51:23.548Z,98.80
2022-12-23T01:52:23.498Z,98.80
2022-12-23T01:53:23.487Z,98.70
2022-12-23T01:54:23.494Z,98.48
2022-12-23T01:55:23.471Z,98.27
2022-12-23T01:56:23.514Z,98.16
2022-12-23T01:57:23.473Z,98.38
2022-12-23T01:58:23.435Z,98.38
2022-12-23T01:59:23.422Z,98.48
2022-12-23T02:00:23.431Z,98.59
2022-12-23T02:01:23.543Z,98.59
2022-12-23T02:02:23.537Z,98.70
2022-12-23T02:03:23.423Z,98.48
2022-12-23T02:04:23.414Z,98.27
2022-12-23T02:05:23.366Z,98.38
2022-12-23T02:06:23.361Z,98.38
2022-12-23T02:07:23.413Z,98.38
2022-12-23T02:08:23.359Z,98.16
2022-12-23T02:09:23.343Z,98.16
2022-12-23T02:10:23.328Z,98.05
2022-12-23T02:11:23.291Z,98.10
2022-12-23T02:12:23.326Z,98.21
2022-12-23T02:13:23.289Z,98.42
2022-12-23T02:14:23.266Z,98.42
2022-12-23T02:15:23.247Z,98.21
2022-12-23T02:16:23.336Z,98.21
2022-12-23T02:17:23.236Z,98.53
2022-12-23T02:18:23.256Z,98.74
2022-12-23T02:19:23.226Z,98.32
2022-12-23T02:20:23.225Z,97.99
2022-12-23T02:21:23.210Z,97.56
2022-12-23T02:22:23.187Z,97.56
2022-12-23T02:23:23.193Z,97.67
2022-12-23T02:24:23.164Z,97.78
2022-12-23T02:25:23.140Z,97.99
2022-12-23T02:26:23.147Z,97.99
2022-12-23T02:27:23.123Z,97.88
2022-12-23T02:28:23.133Z,98.10
2022-12-23T02:29:23.113Z,98.74
2022-12-23T02:30:23.111Z,98.85
2022-12-23T02:31:23.139Z,98.63
2022-12-23T02:32:23.135Z,98.53
2022-12-23T02:33:23.069Z,98.42
2022-12-23T02:34:23.049Z,98.32
2022-12-23T02:35:23.050Z,98.42
2022-12-23T02:36:23.043Z,98.42
2022-12-23T02:37:23.053Z,98.21
2022-12-23T02:38:23.066Z,97.99
2022-12-23T02:39:23.060Z,97.78
2022-12-23T02:40:23.018Z,97.78
2022-12-23T02:41:22.992Z,97.61
2022-12-23T02:42:22.977Z,97.50
2022-12-23T02:43:22.957Z,97.39
2022-12-23T02:44:22.960Z,97.28
2022-12-23T02:45:22.961Z,97.07
2022-12-23T02:46:23.007Z,97.18
2022-12-23T02:47:22.930Z,97.44
2022-12-23T02:48:22.960Z,97.44
2022-12-23T02:49:22.929Z,97.54
2022-12-23T02:50:22.896Z,97.86
2022-12-23T02:51:22.886Z,97.86
2022-12-23T02:52:22.871Z,97.65
2022-12-23T02:53:22.861Z,97.33
2022-12-23T02:54:22.919Z,97.33
2022-12-23T02:55:22.847Z,97.54
2022-12-23T02:56:22.832Z,97.54
2022-12-23T02:57:22.833Z,97.54
2022-12-23T02:58:22.805Z,97.65
2022-12-23T02:59:22.822Z,97.71
2022-12-23T03:00:22.781Z,97.61
2022-12-23T03:01:22.872Z,97.50
2022-12-23T03:02:22.923Z,97.61
2022-12-23T03:03:22.963Z,98.03
2022-12-23T03:04:22.735Z,98.03
2022-12-23T03:05:22.743Z,97.88
2022-12-23T03:06:22.741Z,97.78
2022-12-23T03:07:22.709Z,97.61
2022-12-23T03:08:22.716Z,97.50
2022-12-23T03:09:22.709Z,97.50
2022-12-23T03:10:22.672Z,97.28
2022-12-23T03:11:22.703Z,97.88
2022-12-23T03:12:22.655Z,97.50
2022-12-23T03:13:22.666Z,97.28
2022-12-23T03:14:22.661Z,97.18
2022-12-23T03:15:22.619Z,97.28
2022-12-23T03:16:22.683Z,97.50
2022-12-23T03:17:22.594Z,97.50
2022-12-23T03:18:22.589Z,97.50
2022-12-23T03:19:22.567Z,97.61
2022-12-23T03:20:22.576Z,97.61
2022-12-23T03:21:22.607Z,97.39
2022-12-23T03:22:22.591Z,97.50
2022-12-23T03:23:22.547Z,97.92
2022-12-23T03:24:22.540Z,98.03
2022-12-23T03:25:22.551Z,97.71
2022-12-23T03:26:22.542Z,97.61
2022-12-23T03:27:22.520Z,97.61
2022-12-23T03:28:22.504Z,97.71
2022-12-23T03:29:22.481Z,97.71
2022-12-23T03:30:22.535Z,97.50
2022-12-23T03:31:22.516Z,97.61
2022-12-23T03:32:22.444Z,98.42
2022-12-23T03:33:22.452Z,98.53
2022-12-23T03:34:22.444Z,98.32
2022-12-23T03:35:22.429Z,97.78
2022-12-23T03:36:22.471Z,97.78
2022-12-23T03:37:22.402Z,97.99
2022-12-23T03:38:22.386Z,97.88
2022-12-23T03:39:22.435Z,97.67
2022-12-23T03:40:22.388Z,97.71
2022-12-23T03:41:22.375Z,97.82
2022-12-23T03:42:22.358Z,97.61
2022-12-23T03:43:22.343Z,97.39
2022-12-23T03:44:22.326Z,97.28
2022-12-23T03:45:39.878Z,97.18
2022-12-23T03:46:22.372Z,97.18
2022-12-23T03:47:22.293Z,97.22
2022-12-23T03:48:22.319Z,97.01
2022-12-23T03:49:22.255Z,96.90
2022-12-23T03:50:22.260Z,96.90
2022-12-23T03:51:22.272Z,96.90
2022-12-23T03:52:22.259Z,97.11
2022-12-23T03:53:22.232Z,97.54
2022-12-23T03:54:22.225Z,97.33
2022-12-23T03:55:22.199Z,97.11
2022-12-23T03:56:22.235Z,97.44
2022-12-23T03:57:22.195Z,97.54
2022-12-23T03:58:22.178Z,97.76
2022-12-23T03:59:22.186Z,97.22
2022-12-23T04:00:22.194Z,97.11
2022-12-23T04:01:22.214Z,97.22
2022-12-23T04:02:22.267Z,97.33
2022-12-23T04:03:22.190Z,97.33
2022-12-23T04:04:22.203Z,97.22
2022-12-23T04:05:22.119Z,97.54
2022-12-23T04:06:22.149Z,97.33
2022-12-23T04:07:22.072Z,97.33
2022-12-23T04:08:22.155Z,97.11
2022-12-23T04:09:22.597Z,97.01
2022-12-23T04:10:22.074Z,97.11
2022-12-23T04:11:22.034Z,97.16
2022-12-23T04:12:22.044Z,97.05
2022-12-23T04:13:22.025Z,96.94
2022-12-23T04:14:22.065Z,96.83
2022-12-23T04:15:22.009Z,96.94
2022-12-23T04:16:22.080Z,96.83
2022-12-23T04:17:21.988Z,96.73
2022-12-23T04:18:21.991Z,96.73
2022-12-23T04:19:21.962Z,96.83
2022-12-23T04:20:21.967Z,97.16
2022-12-23T04:21:21.931Z,97.27
2022-12-23T04:22:21.931Z,97.16
2022-12-23T04:23:21.918Z,97.05
2022-12-23T04:24:21.914Z,97.16
2022-12-23T04:25:21.904Z,97.16
2022-12-23T04:26:21.885Z,97.16
2022-12-23T04:27:21.864Z,97.16
2022-12-23T04:28:21.862Z,97.20
2022-12-23T04:29:21.894Z,96.98
2022-12-23T04:30:21.826Z,96.88
2022-12-23T04:31:21.859Z,97.09
2022-12-23T04:32:21.819Z,96.88
2022-12-23T04:33:21.814Z,96.88
2022-12-23T04:34:21.813Z,97.09
2022-12-23T04:35:21.805Z,96.98
2022-12-23T04:36:21.815Z,96.56
2022-12-23T04:37:21.782Z,96.23
2022-12-23T04:38:21.764Z,95.81
2022-12-23T04:39:21.761Z,95.64
2022-12-23T04:40:21.819Z,95.64
2022-12-23T04:41:21.731Z,95.95
2022-12-23T04:42:21.730Z,95.95
2022-12-23T04:43:21.707Z,95.89
2022-12-23T04:44:21.685Z,95.89
2022-12-23T04:45:21.750Z,95.89
2022-12-23T04:46:21.736Z,95.89
2022-12-23T04:47:21.672Z,95.89
2022-12-23T04:48:21.667Z,96.11
2022-12-23T04:49:21.657Z,96.11
2022-12-23T04:50:21.632Z,96.11
2022-12-23T04:51:21.650Z,96.22
2022-12-23T04:52:21.634Z,96.32
2022-12-23T04:53:21.608Z,96.11
2022-12-23T04:54:21.589Z,96.22
2022-12-23T04:55:21.595Z,96.22
2022-12-23T04:56:21.611Z,96.11
2022-12-23T04:57:21.588Z,96.22
2022-12-23T04:58:21.576Z,96.32
2022-12-23T04:59:21.548Z,96.64
2022-12-23T05:00:21.538Z,96.75
2022-12-23T05:01:21.628Z,96.81
2022-12-23T05:02:21.667Z,96.92
2022-12-23T05:03:21.723Z,96.92
2022-12-23T05:04:21.532Z,97.24
2022-12-23T05:05:21.491Z,97.20
2022-12-23T05:06:21.533Z,97.31
2022-12-23T05:07:21.461Z,97.31
2022-12-23T05:08:21.447Z,97.20
2022-12-23T05:09:21.452Z,97.31
2022-12-23T05:10:21.442Z,97.80
2022-12-23T05:11:21.424Z,98.23
2022-12-23T05:12:21.439Z,98.61
2022-12-23T05:13:21.408Z,98.89
2022-12-23T05:14:21.385Z,98.68
2022-12-23T05:15:21.387Z,98.85
2022-12-23T05:16:21.459Z,99.55
2022-12-23T05:17:21.396Z,99.94
2022-12-23T05:18:21.380Z,99.99
2022-12-23T05:19:21.331Z,99.99
2022-12-23T05:20:21.345Z,99.59
2022-12-23T05:21:21.315Z,98.63
2022-12-23T05:22:21.383Z,97.92
2022-12-23T05:23:21.286Z,98.14
2022-12-23T05:24:21.287Z,98.03
2022-12-23T05:25:21.280Z,98.03
2022-12-23T05:26:21.264Z,98.99
2022-12-23T05:27:21.256Z,98.67
2022-12-23T05:28:21.263Z,98.03
2022-12-23T05:29:21.280Z,97.92
2022-12-23T05:30:21.237Z,97.97
2022-12-23T05:31:21.235Z,97.54
2022-12-23T05:32:21.219Z,99.21
2022-12-23T05:33:21.252Z,99.99
2022-12-23T05:34:21.180Z,99.65
2022-12-23T05:35:21.207Z,99.44
2022-12-23T05:36:21.153Z,99.99
2022-12-23T05:37:21.158Z,99.99
2022-12-23T05:38:21.218Z,99.99
2022-12-23T05:39:21.140Z,99.99
2022-12-23T05:40:24.118Z,99.99
2022-12-23T05:41:21.112Z,99.99
2022-12-23T05:42:21.104Z,99.99
2022-12-23T05:43:21.083Z,99.99
2022-12-23T05:44:21.128Z,99.99
2022-12-23T05:45:21.070Z,99.99
2022-12-23T05:46:26.277Z,99.99
2022-12-23T05:47:21.071Z,99.99
2022-12-23T05:48:21.021Z,99.99
2022-12-23T05:49:21.045Z,99.93
2022-12-23T05:50:21.020Z,99.99
2022-12-23T05:51:21.033Z,99.99
2022-12-23T05:52:20.995Z,99.93
2022-12-23T05:53:20.988Z,99.83
2022-12-23T05:54:20.967Z,99.93
2022-12-23T05:55:20.954Z,99.99
2022-12-23T05:56:20.982Z,99.99
2022-12-23T05:57:20.938Z,99.99
2022-12-23T05:58:20.956Z,99.99
2022-12-23T05:59:20.940Z,99.99
2022-12-23T06:00:20.911Z,99.99
2022-12-23T06:01:20.917Z,99.99
2022-12-23T06:02:21.117Z,99.93
2022-12-23T06:03:21.092Z,99.72
2022-12-23T06:04:20.950Z,99.77
2022-12-23T06:05:20.874Z,99.77
2022-12-23T06:06:20.865Z,99.77
2022-12-23T06:07:20.837Z,99.60
2022-12-23T06:08:20.849Z,99.38
2022-12-23T06:09:20.821Z,99.32
2022-12-23T06:10:20.792Z,99.32
2022-12-23T06:11:20.834Z,99.32
2022-12-23T06:12:20.780Z,99.37
2022-12-23T06:13:20.776Z,99.48
2022-12-23T06:14:26.849Z,99.48
2022-12-23T06:15:20.740Z,99.48
2022-12-23T06:16:20.809Z,99.26
2022-12-23T06:17:20.838Z,99.20
2022-12-23T06:18:20.708Z,98.99
2022-12-23T06:19:20.708Z,98.77
2022-12-23T06:20:21.319Z,98.39
2022-12-23T06:21:20.701Z,98.50
2022-12-23T06:22:20.667Z,98.22
2022-12-23T06:23:20.698Z,98.22
2022-12-23T06:24:20.659Z,98.27
2022-12-23T06:25:20.657Z,98.16
2022-12-23T06:26:20.685Z,98.10
2022-12-23T06:27:20.614Z,98.10
2022-12-23T06:28:20.600Z,98.20
2022-12-23T06:29:20.637Z,98.20
2022-12-23T06:30:20.587Z,98.14
2022-12-23T06:31:20.685Z,98.14
2022-12-23T06:32:20.629Z,98.14
2022-12-23T06:33:20.575Z,98.14
2022-12-23T06:34:20.546Z,97.97
2022-12-23T06:35:20.563Z,97.64
2022-12-23T06:36:20.533Z,97.86
2022-12-23T06:37:20.502Z,97.86
2022-12-23T06:38:20.542Z,97.69
2022-12-23T06:39:20.489Z,97.58
2022-12-23T06:40:20.503Z,97.37
2022-12-23T06:41:20.482Z,97.31
2022-12-23T06:42:20.471Z,97.09
2022-12-23T06:43:20.450Z,96.98
2022-12-23T06:44:20.490Z,96.92
2022-12-23T06:45:20.433Z,96.92
2022-12-23T06:46:20.488Z,96.39
2022-12-23T06:47:20.424Z,96.32
2022-12-23T06:48:20.399Z,96.32
2022-12-23T06:49:20.420Z,96.15
2022-12-23T06:50:20.385Z,95.94
2022-12-23T06:51:20.392Z,96.09
2022-12-23T06:52:20.355Z,95.98
2022-12-23T06:53:20.345Z,96.02
2022-12-23T06:54:20.350Z,96.13
2022-12-23T06:55:20.360Z,96.34
2022-12-23T06:56:20.359Z,96.45
2022-12-23T06:57:20.310Z,96.66
2022-12-23T06:58:20.311Z,96.56
2022-12-23T06:59:20.313Z,96.56
2022-12-23T07:00:20.326Z,96.45
2022-12-23T07:01:20.359Z,96.34
2022-12-23T07:02:20.542Z,96.45
2022-12-23T07:03:20.334Z,96.34
2022-12-23T07:04:20.228Z,96.34
2022-12-23T07:05:20.235Z,96.34
2022-12-23T07:06:20.235Z,96.23
2022-12-23T07:07:20.196Z,96.13
2022-12-23T07:08:20.190Z,96.23
2022-12-23T07:09:20.231Z,96.23
2022-12-23T07:10:20.211Z,96.23
2022-12-23T07:11:20.190Z,96.23
2022-12-23T07:12:20.183Z,96.28
2022-12-23T07:13:20.150Z,96.13
2022-12-23T07:14:20.124Z,96.34
2022-12-23T07:15:20.136Z,96.34
2022-12-23T07:16:20.206Z,96.17
2022-12-23T07:17:20.116Z,96.17
2022-12-23T07:18:20.150Z,96.34
2022-12-23T07:19:20.072Z,96.45
2022-12-23T07:20:20.070Z,96.23
2022-12-23T07:21:28.560Z,96.13
2022-12-23T07:22:20.051Z,96.02
2022-12-23T07:23:20.029Z,95.91
2022-12-23T07:24:20.089Z,95.70
2022-12-23T07:25:20.014Z,95.59
2022-12-23T07:26:19.997Z,95.64
2022-12-23T07:27:19.993Z,95.53
2022-12-23T07:28:19.971Z,95.53
2022-12-23T07:29:19.970Z,95.74
2022-12-23T07:30:19.992Z,95.74
2022-12-23T07:31:20.011Z,95.74
2022-12-23T07:32:19.931Z,95.64
2022-12-23T07:33:19.945Z,95.64
2022-12-23T07:34:19.916Z,95.42
2022-12-23T07:35:19.930Z,95.36
2022-12-23T07:36:19.923Z,95.57
2022-12-23T07:37:19.889Z,95.78
2022-12-23T07:38:19.890Z,95.89
2022-12-23T07:39:19.869Z,95.89
2022-12-23T07:40:19.863Z,95.78
2022-12-23T07:41:19.948Z,95.89
2022-12-23T07:43:19.835Z,95.78
2022-12-23T07:44:19.806Z,95.57
2022-12-23T07:45:19.809Z,95.46
2022-12-23T07:46:19.841Z,95.40
2022-12-23T07:47:19.803Z,95.50
2022-12-23T07:48:19.772Z,95.40
2022-12-23T07:49:19.776Z,95.40
2022-12-23T07:50:19.752Z,95.40
2022-12-23T07:51:19.738Z,95.40
2022-12-23T07:52:19.783Z,95.61
2022-12-23T07:53:19.740Z,95.50
2022-12-23T07:54:19.703Z,95.50
2022-12-23T07:55:19.744Z,95.61
2022-12-23T07:56:19.755Z,95.83
2022-12-23T07:57:19.705Z,95.83
2022-12-23T07:58:19.686Z,95.50
2022-12-23T07:59:19.679Z,95.29
2022-12-23T08:00:19.639Z,95.29
2022-12-23T08:01:19.677Z,95.29
2022-12-23T08:02:19.904Z,95.33
2022-12-23T08:03:19.760Z,95.44
2022-12-23T08:04:19.682Z,95.65
2022-12-23T08:05:21.821Z,95.72
2022-12-23T08:06:19.571Z,95.76
2022-12-23T08:07:19.569Z,95.65
2022-12-23T08:08:19.597Z,95.33
2022-12-23T08:09:19.603Z,95.22
2022-12-23T08:10:19.554Z,95.22
2022-12-23T08:11:19.589Z,95.33
2022-12-23T08:12:19.533Z,95.22
2022-12-23T08:13:19.548Z,95.33
2022-12-23T08:14:19.506Z,95.22
2022-12-23T08:15:19.497Z,94.90
2022-12-23T08:16:19.524Z,95.01
2022-12-23T08:17:19.585Z,96.80
2022-12-23T08:18:19.527Z,97.97
2022-12-23T08:19:19.448Z,98.36
2022-12-23T08:20:19.480Z,98.04
2022-12-23T08:21:19.536Z,97.78
2022-12-23T08:22:19.429Z,97.35
2022-12-23T08:23:24.529Z,97.35
2022-12-23T08:24:19.425Z,97.56
2022-12-23T08:25:19.404Z,98.81
2022-12-23T08:26:19.390Z,99.41
2022-12-23T08:27:19.377Z,99.15
2022-12-23T08:28:19.368Z,98.29
2022-12-23T08:29:19.373Z,97.65
2022-12-23T08:30:19.345Z,96.83
2022-12-23T08:31:19.428Z,96.62
2022-12-23T08:32:19.336Z,96.83
2022-12-23T08:33:19.328Z,97.05
2022-12-23T08:34:19.368Z,97.16
2022-12-23T08:35:19.307Z,97.16
2022-12-23T08:36:23.105Z,96.94
2022-12-23T08:37:19.339Z,96.94
2022-12-23T08:38:19.287Z,96.83
2022-12-23T08:39:19.242Z,96.94
2022-12-23T08:40:19.254Z,97.05
2022-12-23T08:41:19.244Z,97.54
2022-12-23T08:42:19.256Z,97.65
2022-12-23T08:43:19.243Z,97.44
2022-12-23T08:44:19.192Z,97.76
2022-12-23T08:45:19.228Z,97.54
2022-12-23T08:46:19.310Z,97.44
2022-12-23T08:47:19.222Z,97.18
2022-12-23T08:48:19.187Z,97.01
2022-12-23T08:49:19.424Z,97.01
2022-12-23T08:50:19.144Z,97.01
2022-12-23T08:51:19.335Z,96.90
2022-12-23T08:52:19.139Z,96.69
2022-12-23T08:53:19.145Z,96.58
2022-12-23T08:54:19.092Z,96.69
2022-12-23T08:55:19.123Z,96.58
2022-12-23T08:56:19.128Z,96.58
2022-12-23T08:57:19.111Z,96.69
2022-12-23T08:58:19.057Z,96.90
2022-12-23T08:59:20.028Z,97.01
2022-12-23T09:00:19.102Z,96.90
2022-12-23T09:01:19.128Z,96.90
2022-12-23T09:02:19.273Z,96.69
2022-12-23T09:03:19.303Z,96.69
2022-12-23T09:04:19.113Z,96.79
2022-12-23T09:05:18.985Z,96.79
2022-12-23T09:06:24.688Z,96.58
2022-12-23T09:07:19.020Z,96.36
2022-12-23T09:08:18.951Z,96.15
2022-12-23T09:09:18.949Z,95.65
2022-12-23T09:10:19.030Z,95.55
2022-12-23T09:11:19.338Z,95.65
2022-12-23T09:12:19.906Z,96.09
2022-12-23T09:13:27.703Z,96.41
2022-12-23T09:14:18.939Z,96.73
2022-12-23T09:15:18.887Z,96.83
2022-12-23T09:16:18.904Z,96.83
2022-12-23T09:17:18.852Z,96.58
2022-12-23T09:18:18.841Z,96.09
2022-12-23T09:19:18.915Z,95.98
2022-12-23T09:20:18.821Z,95.98
2022-12-23T09:21:19.357Z,96.09
2022-12-23T09:22:18.815Z,96.30
2022-12-23T09:23:18.800Z,96.30
2022-12-23T09:24:18.783Z,96.30
2022-12-23T09:25:18.789Z,96.30
2022-12-23T09:26:18.759Z,96.30
2022-12-23T09:27:19.407Z,96.19
2022-12-23T09:28:18.752Z,96.19
2022-12-23T09:29:18.732Z,96.30
2022-12-23T09:30:18.743Z,96.15
2022-12-23T09:31:18.835Z,95.94
2022-12-23T09:32:19.320Z,96.04
2022-12-23T09:33:19.191Z,96.15
2022-12-23T09:34:18.681Z,95.72
2022-12-23T09:35:18.687Z,95.51
2022-12-23T09:36:18.689Z,95.07
2022-12-23T09:37:18.693Z,94.59
2022-12-23T09:38:18.638Z,94.80
2022-12-23T09:39:18.630Z,95.23
2022-12-23T09:40:18.623Z,95.44
2022-12-23T09:41:18.886Z,95.65
2022-12-23T09:42:18.602Z,95.61
2022-12-23T09:43:18.595Z,95.61
2022-12-23T09:44:18.572Z,95.61
2022-12-23T09:45:18.575Z,95.51
2022-12-23T09:46:18.648Z,95.51
2022-12-23T09:47:18.527Z,95.51
2022-12-23T09:48:18.566Z,95.40
2022-12-23T09:49:18.514Z,95.40
2022-12-23T09:50:18.553Z,95.61
2022-12-23T09:51:18.548Z,95.61
2022-12-23T09:52:18.490Z,95.51
2022-12-23T09:53:18.556Z,95.51
2022-12-23T09:54:18.468Z,95.29
2022-12-23T09:55:18.463Z,95.18
2022-12-23T09:56:19.383Z,94.97
2022-12-23T09:57:18.430Z,94.97
2022-12-23T09:58:18.438Z,94.65
2022-12-23T09:59:18.434Z,94.43
2022-12-23T10:00:18.420Z,94.37
2022-12-23T10:01:18.490Z,94.48
2022-12-23T10:02:18.528Z,94.80
2022-12-23T10:03:18.585Z,95.01
2022-12-23T10:04:18.456Z,95.18
2022-12-23T10:05:18.363Z,95.29
2022-12-23T10:06:18.560Z,95.29
2022-12-23T10:07:18.323Z,95.40
2022-12-23T10:08:18.329Z,95.29
2022-12-23T10:09:18.331Z,95.07
2022-12-23T10:10:18.323Z,95.07
2022-12-23T10:11:18.373Z,95.07
2022-12-23T10:12:23.625Z,94.97
2022-12-23T10:13:18.324Z,94.97
2022-12-23T10:14:18.264Z,94.86
2022-12-23T10:15:18.311Z,94.54
2022-12-23T10:16:18.346Z,94.22
2022-12-23T10:17:18.263Z,94.37
2022-12-23T10:18:18.229Z,94.69
2022-12-23T10:19:18.248Z,94.90
2022-12-23T10:20:18.316Z,95.44
2022-12-23T10:21:18.911Z,95.51
2022-12-23T10:22:18.220Z,95.61
2022-12-23T10:23:18.180Z,95.51
2022-12-23T10:24:18.946Z,95.51
2022-12-23T10:25:18.149Z,95.51
2022-12-23T10:26:18.145Z,95.51
2022-12-23T10:27:18.123Z,95.40
2022-12-23T10:28:18.113Z,95.51
2022-12-23T10:29:19.237Z,95.51
2022-12-23T10:30:51.271Z,95.40
2022-12-23T10:31:39.677Z,95.07
2022-12-23T10:32:18.109Z,94.76
2022-12-23T10:33:18.115Z,94.43
2022-12-23T10:34:18.333Z,94.22
2022-12-23T10:35:18.059Z,94.22
2022-12-23T10:36:18.092Z,94.22
2022-12-23T10:37:18.048Z,94.33
2022-12-23T10:38:18.007Z,94.54
2022-12-23T10:39:18.013Z,94.33
2022-12-23T10:40:18.171Z,93.90
2022-12-23T10:41:17.969Z,94.01
2022-12-23T10:42:17.971Z,94.22
2022-12-23T10:43:17.965Z,94.22
2022-12-23T10:44:17.971Z,94.33
2022-12-23T10:45:18.000Z,94.22
2022-12-23T10:46:18.018Z,93.73
2022-12-23T10:47:17.948Z,93.73
2022-12-23T10:48:17.908Z,94.22
2022-12-23T10:49:19.775Z,94.86
2022-12-23T10:50:17.937Z,94.97
2022-12-23T10:51:17.884Z,94.97
2022-12-23T10:52:18.468Z,95.29
2022-12-23T10:53:17.850Z,95.83
2022-12-23T10:54:17.859Z,96.26
2022-12-23T10:55:17.880Z,96.15
2022-12-23T10:56:17.818Z,95.78
2022-12-23T10:57:17.875Z,95.68
2022-12-23T10:58:17.830Z,96.22
2022-12-23T10:59:17.788Z,96.22
2022-12-23T11:00:17.791Z,95.40
2022-12-23T11:01:26.103Z,94.97
2022-12-23T11:02:18.031Z,94.22
2022-12-23T11:03:17.952Z,94.22
2022-12-23T11:04:17.824Z,93.68
2022-12-23T11:05:18.444Z,93.51
2022-12-23T11:06:17.706Z,93.51
2022-12-23T11:07:43.374Z,93.94
2022-12-23T11:08:17.701Z,94.48
2022-12-23T11:09:17.725Z,94.48
2022-12-23T11:10:17.721Z,94.26
2022-12-23T11:11:17.662Z,94.26
2022-12-23T11:12:17.660Z,94.37
2022-12-23T11:13:17.685Z,94.76
2022-12-23T11:14:17.839Z,95.18
2022-12-23T11:15:17.654Z,95.07
2022-12-23T11:16:17.670Z,94.97
2022-12-23T11:17:17.599Z,95.72
2022-12-23T11:18:17.657Z,95.83
2022-12-23T11:19:17.591Z,95.89
2022-12-23T11:20:17.595Z,95.78
2022-12-23T11:21:17.586Z,95.68
2022-12-23T11:22:17.551Z,96.00
2022-12-23T11:23:17.534Z,95.74
2022-12-23T11:24:17.558Z,95.53
2022-12-23T11:25:17.554Z,95.42
2022-12-23T11:26:17.529Z,95.42
2022-12-23T11:27:17.526Z,95.53
2022-12-23T11:28:17.484Z,95.42
2022-12-23T11:29:17.473Z,95.31
2022-12-23T11:30:17.468Z,95.42
2022-12-23T11:31:17.513Z,95.53
2022-12-23T11:32:17.463Z,96.28
2022-12-23T11:33:17.422Z,96.13
2022-12-23T11:34:17.417Z,97.63
2022-12-23T11:35:17.472Z,98.33
2022-12-23T11:36:17.420Z,98.12
2022-12-23T11:37:17.406Z,97.16
2022-12-23T11:38:17.387Z,96.62
2022-12-23T11:39:17.385Z,97.26
2022-12-23T11:40:17.397Z,97.80
2022-12-23T11:41:17.344Z,98.39
2022-12-23T11:42:17.620Z,98.88
2022-12-23T11:43:17.340Z,98.78
2022-12-23T11:44:17.315Z,98.57
2022-12-23T11:45:17.332Z,98.14
2022-12-23T11:46:17.391Z,98.41
2022-12-23T11:47:17.279Z,98.10
2022-12-23T11:48:17.332Z,97.45
2022-12-23T11:49:17.272Z,97.24
2022-12-23T11:50:17.285Z,98.20
2022-12-23T11:51:17.244Z,98.74
2022-12-23T11:52:17.290Z,98.52
2022-12-23T11:53:17.245Z,97.99
2022-12-23T11:54:17.228Z,97.88
2022-12-23T11:55:17.211Z,97.77
2022-12-23T11:56:17.286Z,97.45
2022-12-23T11:57:17.292Z,97.34
2022-12-23T11:58:17.198Z,97.56
2022-12-23T11:59:17.256Z,98.27
2022-12-23T12:00:17.163Z,98.16
2022-12-23T12:01:17.149Z,97.84
2022-12-23T12:02:17.171Z,98.05
2022-12-23T12:03:17.215Z,98.80
2022-12-23T12:04:17.106Z,99.12
2022-12-23T12:05:17.113Z,98.91
2022-12-23T12:06:17.094Z,98.91
2022-12-23T12:07:17.106Z,99.71
2022-12-23T12:08:17.067Z,99.71
2022-12-23T12:09:17.068Z,98.86
2022-12-23T12:10:17.050Z,98.22
2022-12-23T12:11:17.036Z,98.11
2022-12-23T12:12:17.023Z,98.54
2022-12-23T12:13:17.023Z,99.46
2022-12-23T12:14:17.061Z,99.13
2022-12-23T12:15:17.001Z,98.82
2022-12-23T12:16:17.094Z,98.60
2022-12-23T12:17:17.028Z,98.39
2022-12-23T12:18:16.978Z,98.33
2022-12-23T12:19:16.962Z,98.43
2022-12-23T12:20:16.951Z,98.71
2022-12-23T12:21:16.937Z,99.35
2022-12-23T12:22:16.945Z,99.13
2022-12-23T12:23:16.917Z,98.93
2022-12-23T12:24:19.595Z,99.03
2022-12-23T12:25:16.897Z,99.03
2022-12-23T12:26:16.870Z,99.99
2022-12-23T12:27:16.899Z,99.99
2022-12-23T12:28:16.883Z,99.99
2022-12-23T12:29:16.891Z,99.99
2022-12-23T12:30:16.833Z,99.99
2022-12-23T12:31:16.937Z,99.69
2022-12-23T12:32:16.854Z,99.58
2022-12-23T12:33:16.838Z,98.83
2022-12-23T12:34:16.792Z,98.62
2022-12-23T12:35:16.784Z,98.45
2022-12-23T12:36:16.860Z,98.24
2022-12-23T12:37:16.820Z,98.35
2022-12-23T12:38:16.779Z,98.45
2022-12-23T12:39:16.759Z,98.88
2022-12-23T12:40:16.734Z,99.41
2022-12-23T12:41:16.740Z,99.30
2022-12-23T12:42:16.704Z,99.09
2022-12-23T12:43:17.436Z,99.41
2022-12-23T12:44:16.708Z,99.84
2022-12-23T12:45:16.681Z,99.73
2022-12-23T12:46:16.928Z,99.73
2022-12-23T12:47:44.591Z,99.63
2022-12-23T12:48:18.870Z,99.41
2022-12-23T12:49:16.668Z,99.09
2022-12-23T12:50:16.640Z,98.88
2022-12-23T12:51:16.629Z,99.09
2022-12-23T12:52:16.602Z,99.41
2022-12-23T12:53:16.596Z,99.41